Time;durP1;ratioP1;P1;durP2;ratioP2;P2;SDS_P1;SDS_P2;PMS_P1;PMS_P2;Temp;Humidity;BMP_temperature;BMP_pressure;BME280_temperature;BME280_humidity;BME280_pressure;Samples;Min_cycle;Max_cycle;Signal;HPM_P1;HPM_P2
2022/09/25 00:00:21;;;;;;;7.38;3.38;;;9.00;99.90;;;;;;6270610;22;20035;-87
2022/09/25 00:02:47;;;;;;;7.05;2.90;;;9.10;99.90;;;;;;6269917;22;20020;-87
2022/09/25 00:05:13;;;;;;;11.07;3.78;;;9.00;99.90;;;;;;6269643;22;20034;-87
2022/09/25 00:07:38;;;;;;;10.85;3.08;;;9.00;99.90;;;;;;6269907;22;20011;-87
2022/09/25 00:10:04;;;;;;;11.13;3.13;;;9.00;99.90;;;;;;6269744;22;20016;-87
2022/09/25 00:12:30;;;;;;;11.35;3.60;;;9.00;99.90;;;;;;6269664;22;20099;-87
2022/09/25 00:14:56;;;;;;;8.23;3.40;;;8.90;99.90;;;;;;6244055;22;20027;-87
2022/09/25 00:17:22;;;;;;;9.93;3.35;;;8.90;99.90;;;;;;6269911;22;20051;-86
2022/09/25 00:19:50;;;;;;;9.57;3.28;;;8.90;99.90;;;;;;6271561;22;20015;-87
2022/09/25 00:22:21;;;;;;;8.88;3.20;;;8.90;99.90;;;;;;6244552;22;20007;-87
2022/09/25 00:24:47;;;;;;;6.60;2.97;;;8.90;99.90;;;;;;6270165;22;20024;-87
2022/09/25 00:27:14;;;;;;;8.25;3.00;;;8.90;99.90;;;;;;6272090;22;20019;-87
2022/09/25 00:29:40;;;;;;;5.95;2.83;;;8.90;99.90;;;;;;6271095;22;20011;-87
2022/09/25 00:32:08;;;;;;;9.68;2.95;;;8.90;99.90;;;;;;6271815;22;20493;-87
2022/09/25 00:34:34;;;;;;;8.00;3.17;;;8.90;99.90;;;;;;6269472;22;20019;-87
2022/09/25 00:36:59;;;;;;;10.48;3.03;;;8.80;99.90;;;;;;6270370;22;20020;-87
2022/09/25 00:39:25;;;;;;;8.77;3.30;;;8.80;99.90;;;;;;6270345;22;20034;-87
2022/09/25 00:41:54;;;;;;;11.20;3.05;;;8.80;99.90;;;;;;6270522;22;20012;-87
2022/09/25 00:44:45;;;;;;;5.82;2.45;;;8.80;99.90;;;;;;6270682;22;20433;-88
2022/09/25 00:47:15;;;;;;;9.60;3.30;;;8.80;99.90;;;;;;6273099;22;20008;-87
2022/09/25 00:49:42;;;;;;;9.30;2.78;;;8.80;99.90;;;;;;6270763;22;20023;-87
2022/09/25 00:52:12;;;;;;;8.45;2.75;;;8.80;99.90;;;;;;6270107;22;20016;-87
2022/09/25 00:54:40;;;;;;;14.75;3.90;;;8.70;99.90;;;;;;6272647;22;20020;-87
2022/09/25 00:57:09;;;;;;;10.07;3.10;;;8.70;99.90;;;;;;6270465;22;20069;-87
2022/09/25 00:59:39;;;;;;;8.45;3.08;;;8.70;99.90;;;;;;6272608;22;20015;-87
2022/09/25 01:02:12;;;;;;;8.70;3.08;;;8.70;99.90;;;;;;6272460;22;20015;-87
2022/09/25 01:04:40;;;;;;;8.43;3.00;;;8.70;99.90;;;;;;6271887;22;20141;-87
2022/09/25 01:07:08;;;;;;;11.68;2.35;;;8.70;99.90;;;;;;6270268;22;20429;-87
2022/09/25 01:09:35;;;;;;;9.18;3.28;;;8.60;99.90;;;;;;6245300;22;20011;-87
2022/09/25 01:12:01;;;;;;;9.63;2.53;;;8.60;99.90;;;;;;6270624;22;20355;-87
2022/09/25 01:14:27;;;;;;;5.05;2.10;;;8.60;99.90;;;;;;6273264;22;20011;-87
2022/09/25 01:17:20;;;;;;;8.70;2.80;;;8.60;99.90;;;;;;6272390;22;20433;-87
2022/09/25 01:20:07;;;;;;;8.00;2.53;;;8.60;99.90;;;;;;6215339;22;20018;-87
2022/09/25 01:22:38;;;;;;;7.00;2.85;;;8.70;99.90;;;;;;6270531;22;20496;-87
2022/09/25 01:25:11;;;;;;;8.45;2.97;;;8.70;99.90;;;;;;6244989;22;20016;-87
2022/09/25 01:28:05;;;;;;;6.88;2.65;;;8.60;99.90;;;;;;6244525;22;20019;-87
2022/09/25 01:30:35;;;;;;;7.32;2.67;;;8.60;99.90;;;;;;6271474;22;20020;-87
2022/09/25 01:33:23;;;;;;;6.32;2.42;;;8.60;99.90;;;;;;6274410;22;20022;-87
2022/09/25 01:36:02;;;;;;;9.82;3.13;;;8.60;99.90;;;;;;6274463;22;20381;-87
2022/09/25 01:38:37;;;;;;;7.47;2.25;;;8.60;99.90;;;;;;6272133;22;20012;-86
2022/09/25 01:41:18;;;;;;;7.68;2.40;;;8.60;99.90;;;;;;6246357;22;20047;-87
2022/09/25 01:44:10;;;;;;;11.65;2.30;;;8.60;99.90;;;;;;6247080;22;20011;-87
2022/09/25 01:46:42;;;;;;;5.22;1.90;;;8.50;99.90;;;;;;6246559;22;20018;-87
2022/09/25 01:49:16;;;;;;;7.00;2.70;;;8.40;99.90;;;;;;6272839;22;20007;-87
2022/09/25 01:51:48;;;;;;;6.68;2.38;;;8.40;99.90;;;;;;6274442;22;20114;-88
2022/09/25 01:54:20;;;;;;;8.20;2.38;;;8.40;99.90;;;;;;6272435;22;20336;-87
2022/09/25 01:56:49;;;;;;;9.23;2.45;;;8.30;99.90;;;;;;6272488;22;20020;-87
2022/09/25 01:59:43;;;;;;;9.27;2.60;;;8.30;99.90;;;;;;6272254;22;20050;-87
2022/09/25 02:02:14;;;;;;;8.88;2.80;;;8.30;99.90;;;;;;6245511;22;20022;-87
2022/09/25 02:04:45;;;;;;;7.60;2.40;;;8.20;99.90;;;;;;6246632;22;20023;-87
2022/09/25 02:07:19;;;;;;;6.57;2.20;;;8.20;99.90;;;;;;6271904;22;20057;-87
2022/09/25 02:09:51;;;;;;;8.63;2.67;;;8.10;99.90;;;;;;6274191;22;20047;-87
2022/09/25 02:12:33;;;;;;;7.65;2.83;;;8.20;99.90;;;;;;6272073;22;20030;-87
2022/09/25 02:15:13;;;;;;;6.47;2.05;;;8.10;99.90;;;;;;6271937;22;20555;-87
2022/09/25 02:20:33;;;;;;;7.43;2.55;;;8.10;99.90;;;;;;6273941;22;20055;-87
2022/09/25 02:23:20;;;;;;;6.05;2.00;;;8.10;99.90;;;;;;6273215;22;20437;-87
2022/09/25 02:26:01;;;;;;;7.22;2.53;;;8.10;99.90;;;;;;6271867;22;20019;-87
2022/09/25 02:28:27;;;;;;;7.53;2.25;;;8.10;99.90;;;;;;6271585;22;20452;-87
2022/09/25 02:30:57;;;;;;;9.45;2.53;;;8.10;99.90;;;;;;6270574;22;20091;-87
2022/09/25 02:33:25;;;;;;;9.20;2.63;;;8.10;99.90;;;;;;6271863;22;20095;-87
2022/09/25 02:35:51;;;;;;;8.98;2.80;;;8.10;99.90;;;;;;6273172;22;20516;-87
2022/09/25 02:38:18;;;;;;;10.10;2.88;;;8.10;99.90;;;;;;6273591;22;20018;-87
2022/09/25 02:40:52;;;;;;;10.50;3.00;;;8.10;99.90;;;;;;6273497;22;20015;-87
2022/09/25 02:43:50;;;;;;;8.43;2.70;;;8.10;99.90;;;;;;6271723;22;20015;-87
2022/09/25 02:47:07;;;;;;;5.35;2.40;;;8.10;99.90;;;;;;6245781;22;20015;-88
2022/09/25 02:50:14;;;;;;;7.10;2.63;;;8.10;99.90;;;;;;6154010;23;20024;-88
2022/09/25 02:52:49;;;;;;;5.55;2.13;;;8.00;99.90;;;;;;6066476;23;20029;-88
2022/09/25 02:55:20;;;;;;;7.55;2.47;;;7.90;99.90;;;;;;6090699;23;20058;-87
2022/09/25 02:58:02;;;;;;;8.00;2.75;;;7.90;99.90;;;;;;6066459;23;20014;-87
2022/09/25 03:00:28;;;;;;;4.28;2.15;;;7.90;99.90;;;;;;6089729;23;20021;-87
2022/09/25 03:02:58;;;;;;;10.65;2.90;;;8.00;99.90;;;;;;6090562;23;20014;-87
2022/09/25 03:05:25;;;;;;;8.70;2.42;;;7.90;99.90;;;;;;6067071;23;20074;-88
2022/09/25 03:10:37;;;;;;;6.32;2.38;;;7.90;99.90;;;;;;6090317;23;20467;-87
2022/09/25 03:13:13;;;;;;;7.63;2.55;;;7.90;99.90;;;;;;6066130;23;20018;-87
2022/09/25 03:15:40;;;;;;;11.05;3.10;;;7.90;99.90;;;;;;6090735;23;20015;-87
2022/09/25 03:18:07;;;;;;;8.13;2.70;;;7.90;99.90;;;;;;6066433;23;20523;-87
2022/09/25 03:20:32;;;;;;;8.52;2.38;;;7.90;99.90;;;;;;6042354;23;20089;-87
2022/09/25 03:22:58;;;;;;;6.75;2.28;;;7.90;99.90;;;;;;6122101;23;20040;-88
2022/09/25 03:25:24;;;;;;;4.93;2.22;;;7.90;99.90;;;;;;6183663;23;20016;-87
2022/09/25 03:27:49;;;;;;;8.32;2.20;;;7.90;99.90;;;;;;6208141;23;20027;-87
2022/09/25 03:30:15;;;;;;;5.53;1.52;;;7.90;99.90;;;;;;6271052;22;20037;-87
2022/09/25 03:32:41;;;;;;;5.13;2.00;;;7.80;99.90;;;;;;6271761;22;20394;-87
2022/09/25 03:35:07;;;;;;;9.23;2.28;;;8.20;99.90;;;;;;6271619;22;20018;-87
2022/09/25 03:37:32;;;;;;;9.25;2.30;;;7.70;99.90;;;;;;6273110;22;20015;-87
2022/09/25 03:40:00;;;;;;;7.70;2.72;;;7.70;99.90;;;;;;6272678;22;20019;-88
2022/09/25 03:42:27;;;;;;;7.53;2.65;;;7.70;99.90;;;;;;6270580;22;20012;-87
2022/09/25 03:44:52;;;;;;;7.25;2.55;;;7.70;99.90;;;;;;6273294;22;20380;-87
2022/09/25 03:47:18;;;;;;;5.88;2.15;;;7.70;99.90;;;;;;6271190;22;20012;-87
2022/09/25 03:49:44;;;;;;;6.68;2.17;;;7.70;99.90;;;;;;6271699;22;20090;-87
2022/09/25 03:52:11;;;;;;;9.77;2.45;;;7.70;99.90;;;;;;6244807;22;20448;-87
2022/09/25 03:54:37;;;;;;;8.13;1.88;;;7.70;99.90;;;;;;6272956;22;20123;-87
2022/09/25 03:57:02;;;;;;;6.68;2.00;;;7.70;99.90;;;;;;6272409;22;20382;-87
2022/09/25 03:59:28;;;;;;;7.53;2.58;;;7.70;99.90;;;;;;6271176;22;20015;-87
2022/09/25 04:01:54;;;;;;;5.75;1.73;;;7.70;99.90;;;;;;6245559;22;20030;-88
2022/09/25 04:04:20;;;;;;;7.78;2.45;;;7.70;99.90;;;;;;6272732;22;20079;-88
2022/09/25 04:06:45;;;;;;;6.45;2.20;;;7.70;99.90;;;;;;6271068;22;20193;-88
2022/09/25 04:09:11;;;;;;;6.60;1.88;;;7.80;99.90;;;;;;6271362;22;20023;-87
2022/09/25 04:11:37;;;;;;;8.98;2.20;;;8.20;99.90;;;;;;6270275;22;20011;-87
2022/09/25 04:14:03;;;;;;;12.57;2.92;;;7.90;99.90;;;;;;6271134;22;20077;-88
2022/09/25 04:16:30;;;;;;;9.27;2.78;;;7.90;99.90;;;;;;6270702;22;20038;-87
2022/09/25 04:18:56;;;;;;;5.60;2.22;;;7.90;99.90;;;;;;6245935;22;20016;-88
2022/09/25 04:21:22;;;;;;;5.40;2.17;;;8.00;99.90;;;;;;6272615;22;20047;-88
2022/09/25 04:26:33;;;;;;;9.18;2.30;;;7.90;99.90;;;;;;6270094;22;20734;-87
2022/09/25 04:29:02;;;;;;;9.10;2.50;;;7.90;99.90;;;;;;6272473;22;20012;-88
2022/09/25 04:31:31;;;;;;;6.75;2.22;;;7.90;99.90;;;;;;6273282;22;20046;-86
2022/09/25 04:33:56;;;;;;;8.85;2.15;;;7.90;99.90;;;;;;6245278;22;20039;-88
2022/09/25 04:36:22;;;;;;;13.25;2.50;;;7.90;99.90;;;;;;6270923;22;20016;-87
2022/09/25 04:38:48;;;;;;;7.20;2.20;;;7.90;99.90;;;;;;6271069;22;20015;-88
2022/09/25 04:41:18;;;;;;;6.65;2.03;;;7.90;99.90;;;;;;6244543;22;20020;-87
2022/09/25 04:43:44;;;;;;;7.85;2.10;;;7.80;99.90;;;;;;6271065;22;20433;-87
2022/09/25 04:46:12;;;;;;;9.05;1.88;;;7.80;99.90;;;;;;6270854;22;20112;-88
2022/09/25 04:48:37;;;;;;;7.20;1.92;;;7.80;99.90;;;;;;6270765;22;20023;-87
2022/09/25 04:51:04;;;;;;;7.65;2.05;;;7.70;99.90;;;;;;6270685;22;20012;-88
2022/09/25 04:53:33;;;;;;;5.88;2.22;;;7.70;99.90;;;;;;6273271;22;20012;-87
2022/09/25 04:56:06;;;;;;;6.65;2.03;;;7.70;99.90;;;;;;6270546;22;20073;-87
2022/09/25 04:58:32;;;;;;;8.18;2.10;;;7.60;99.90;;;;;;6271652;22;20018;-85
2022/09/25 05:01:07;;;;;;;10.98;2.28;;;7.50;99.90;;;;;;6270815;22;20483;-86
2022/09/25 05:03:33;;;;;;;6.38;1.85;;;7.50;99.90;;;;;;6272221;22;20104;-86
2022/09/25 05:05:59;;;;;;;7.13;1.88;;;7.50;99.90;;;;;;6273470;22;20075;-85
2022/09/25 05:08:26;;;;;;;6.88;1.85;;;7.50;99.90;;;;;;6272585;22;20026;-85
2022/09/25 05:10:52;;;;;;;8.15;1.95;;;7.40;99.90;;;;;;6246498;22;20035;-85
2022/09/25 05:13:17;;;;;;;4.28;1.70;;;7.40;99.90;;;;;;6272563;22;20023;-85
2022/09/25 05:15:43;;;;;;;6.30;1.50;;;7.40;99.90;;;;;;6272768;22;20138;-85
2022/09/25 05:18:15;;;;;;;4.25;1.92;;;7.30;99.90;;;;;;6272316;22;20102;-86
2022/09/25 05:20:40;;;;;;;9.75;1.88;;;7.30;99.90;;;;;;6273681;22;20012;-86
2022/09/25 05:23:07;;;;;;;6.32;2.03;;;7.30;99.90;;;;;;6274225;22;20011;-85
2022/09/25 05:25:33;;;;;;;6.07;1.83;;;7.20;99.90;;;;;;6273158;22;20026;-85
2022/09/25 05:27:59;;;;;;;6.82;1.60;;;7.20;99.90;;;;;;6272622;22;20314;-86
2022/09/25 05:30:31;;;;;;;5.15;1.48;;;7.20;99.90;;;;;;6272855;22;20684;-85
2022/09/25 05:32:57;;;;;;;4.20;1.83;;;7.20;99.90;;;;;;6273398;22;20033;-85
2022/09/25 05:35:23;;;;;;;11.82;1.90;;;7.10;99.90;;;;;;6270976;22;20115;-86
2022/09/25 05:37:49;;;;;;;6.53;1.98;;;7.20;99.90;;;;;;6246268;22;20018;-85
2022/09/25 05:40:16;;;;;;;5.70;1.65;;;7.20;99.90;;;;;;6272262;22;20333;-84
2022/09/25 05:42:43;;;;;;;4.88;1.77;;;7.20;99.90;;;;;;6272646;22;20020;-83
2022/09/25 05:45:13;;;;;;;7.28;2.00;;;7.10;99.90;;;;;;6279248;22;20433;-86
2022/09/25 05:47:39;;;;;;;4.75;1.50;;;7.10;99.90;;;;;;6277583;22;20056;-86
2022/09/25 05:50:08;;;;;;;7.28;1.67;;;7.20;99.90;;;;;;6276136;22;20039;-83
2022/09/25 05:52:34;;;;;;;7.03;2.30;;;7.10;99.90;;;;;;6277010;22;20023;-86
2022/09/25 05:55:02;;;;;;;4.82;1.75;;;7.20;99.90;;;;;;6274793;22;20046;-85
2022/09/25 05:57:30;;;;;;;5.13;2.03;;;7.20;99.90;;;;;;6273420;22;20015;-85
2022/09/25 05:59:55;;;;;;;5.88;2.00;;;7.20;99.90;;;;;;6271045;22;20290;-85
2022/09/25 06:02:21;;;;;;;6.25;1.38;;;7.10;99.90;;;;;;6244949;22;20023;-85
2022/09/25 06:04:46;;;;;;;5.07;1.70;;;7.20;99.90;;;;;;6270391;22;20027;-89
2022/09/25 06:07:12;;;;;;;5.78;1.95;;;7.10;99.90;;;;;;6269519;22;20012;-89
2022/09/25 06:09:37;;;;;;;5.90;1.80;;;7.20;99.90;;;;;;6272376;22;20008;-88
2022/09/25 06:12:03;;;;;;;8.75;2.28;;;7.20;99.90;;;;;;6272132;22;20015;-89
2022/09/25 06:14:29;;;;;;;4.45;1.80;;;7.20;99.90;;;;;;6271187;22;20464;-88
2022/09/25 06:16:56;;;;;;;7.85;2.15;;;7.20;99.90;;;;;;6271161;22;20019;-86
2022/09/25 06:19:22;;;;;;;8.05;1.88;;;7.20;99.90;;;;;;6245074;22;20019;-89
2022/09/25 06:21:47;;;;;;;5.85;1.80;;;7.20;99.90;;;;;;6269849;22;20045;-87
2022/09/25 06:24:13;;;;;;;8.90;2.00;;;7.30;99.90;;;;;;6271036;22;20145;-85
2022/09/25 06:26:39;;;;;;;7.32;2.63;;;7.90;99.90;;;;;;6272789;22;20011;-85
2022/09/25 06:29:06;;;;;;;6.68;2.70;;;7.30;99.90;;;;;;6272156;22;20061;-84
2022/09/25 06:31:33;;;;;;;10.15;2.70;;;7.40;99.90;;;;;;6272630;22;20019;-82
2022/09/25 06:33:59;;;;;;;9.52;2.85;;;7.50;99.90;;;;;;6272096;22;20071;-82
2022/09/25 06:36:25;;;;;;;8.73;2.58;;;7.60;99.90;;;;;;6269834;22;20326;-83
2022/09/25 06:38:54;;;;;;;6.30;2.63;;;7.60;99.90;;;;;;6271663;22;20086;-83
2022/09/25 06:41:20;;;;;;;7.25;2.90;;;7.60;99.90;;;;;;6272391;22;20043;-84
2022/09/25 06:43:50;;;;;;;6.95;2.70;;;7.70;99.90;;;;;;6244686;22;20015;-83
2022/09/25 06:46:17;;;;;;;7.90;2.28;;;7.70;99.90;;;;;;6271838;22;20035;-84
2022/09/25 06:48:43;;;;;;;6.22;2.60;;;7.70;99.90;;;;;;6269461;22;20020;-85
2022/09/25 06:51:09;;;;;;;6.65;2.47;;;7.70;99.90;;;;;;6271825;22;20099;-84
2022/09/25 06:53:34;;;;;;;9.80;2.58;;;7.80;99.90;;;;;;6272143;22;20035;-82
2022/09/25 06:56:01;;;;;;;8.75;2.50;;;7.80;99.90;;;;;;6271957;22;20281;-82
2022/09/25 06:58:29;;;;;;;7.38;2.40;;;7.80;99.90;;;;;;6272320;22;20008;-84
2022/09/25 07:00:55;;;;;;;9.90;2.45;;;7.80;99.90;;;;;;6272620;22;20016;-85
2022/09/25 07:06:09;;;;;;;6.22;2.08;;;8.00;99.90;;;;;;6271467;22;20019;-82
2022/09/25 07:08:36;;;;;;;6.72;2.97;;;8.10;99.90;;;;;;6270176;22;20066;-84
2022/09/25 07:11:02;;;;;;;12.30;4.38;;;8.20;99.90;;;;;;6272282;22;20020;-82
2022/09/25 07:13:30;;;;;;;16.27;6.97;;;8.20;99.90;;;;;;6272017;22;20025;-82
2022/09/25 07:16:01;;;;;;;9.88;4.43;;;8.30;99.90;;;;;;6271452;22;20444;-82
2022/09/25 07:18:28;;;;;;;10.50;5.40;;;8.40;99.90;;;;;;6271515;22;20296;-84
2022/09/25 07:20:59;;;;;;;13.35;3.40;;;8.40;99.90;;;;;;6270547;22;20463;-84
2022/09/25 07:23:25;;;;;;;9.25;2.78;;;8.40;99.90;;;;;;6271720;22;20744;-84
2022/09/25 07:25:51;;;;;;;7.28;2.83;;;8.50;99.90;;;;;;6271349;22;20043;-84
2022/09/25 07:28:18;;;;;;;8.15;2.63;;;8.60;99.90;;;;;;6269123;22;20081;-84
2022/09/25 07:30:44;;;;;;;6.75;2.30;;;8.70;99.90;;;;;;6268742;22;20024;-83
2022/09/25 07:33:11;;;;;;;10.10;2.65;;;8.70;99.90;;;;;;6271536;22;20130;-82
2022/09/25 07:35:37;;;;;;;11.80;2.78;;;8.70;99.90;;;;;;6269043;22;20113;-85
2022/09/25 07:38:03;;;;;;;10.60;2.58;;;8.90;99.90;;;;;;6271511;22;20012;-85
2022/09/25 07:40:30;;;;;;;11.80;2.72;;;8.90;99.90;;;;;;6270616;22;20448;-84
2022/09/25 07:43:05;;;;;;;8.10;2.78;;;8.90;99.90;;;;;;6269208;22;20365;-85
2022/09/25 07:45:31;;;;;;;8.07;2.20;;;9.00;99.90;;;;;;6270352;22;20012;-80
2022/09/25 07:47:59;;;;;;;6.20;2.70;;;9.10;99.90;;;;;;6271179;22;20393;-84
2022/09/25 07:50:26;;;;;;;11.27;3.10;;;9.20;99.90;;;;;;6268824;22;20012;-84
2022/09/25 07:52:53;;;;;;;7.65;3.28;;;9.40;99.90;;;;;;6267698;22;20072;-84
2022/09/25 07:55:19;;;;;;;11.27;4.20;;;9.40;99.90;;;;;;6267749;22;20022;-84
2022/09/25 07:57:45;;;;;;;12.45;3.55;;;9.50;99.90;;;;;;6267602;22;20441;-84
2022/09/25 08:00:12;;;;;;;14.88;3.65;;;9.70;99.90;;;;;;6269828;22;20027;-84
2022/09/25 08:02:38;;;;;;;10.57;2.75;;;9.60;99.90;;;;;;6269677;22;20030;-84
2022/09/25 08:05:04;;;;;;;9.05;3.35;;;9.80;99.90;;;;;;6269892;22;20011;-84
2022/09/25 08:07:29;;;;;;;9.45;2.95;;;10.00;99.90;;;;;;6270484;22;20019;-84
2022/09/25 08:09:55;;;;;;;9.93;3.47;;;10.10;99.90;;;;;;6271886;22;20003;-86
2022/09/25 08:12:24;;;;;;;10.63;3.47;;;10.30;99.90;;;;;;6269947;22;20051;-84
2022/09/25 08:14:53;;;;;;;8.63;2.83;;;10.60;99.90;;;;;;6269630;22;20081;-84
2022/09/25 08:17:19;;;;;;;8.05;2.90;;;10.50;99.90;;;;;;6271378;22;20138;-84
2022/09/25 08:19:45;;;;;;;9.60;1.95;;;10.70;99.90;;;;;;6271281;22;20029;-84
2022/09/25 08:22:11;;;;;;;12.05;2.58;;;10.80;99.90;;;;;;6271636;22;20027;-90
2022/09/25 08:24:36;;;;;;;11.52;2.58;;;10.90;99.90;;;;;;6271565;22;20012;-87
2022/09/25 08:27:03;;;;;;;14.55;5.50;;;11.10;99.90;;;;;;6269852;22;20016;-87
2022/09/25 08:29:29;;;;;;;8.55;2.17;;;11.20;99.90;;;;;;6271694;22;20020;-80
2022/09/25 08:31:55;;;;;;;8.75;2.90;;;11.30;99.90;;;;;;6271116;22;20417;-85
2022/09/25 08:34:21;;;;;;;6.18;1.70;;;11.30;99.90;;;;;;6270451;22;20445;-89
2022/09/25 08:36:51;;;;;;;8.75;3.08;;;11.40;99.90;;;;;;6271771;22;20061;-88
2022/09/25 08:39:17;;;;;;;7.80;2.75;;;11.50;99.90;;;;;;6272829;22;20014;-85
2022/09/25 08:41:54;;;;;;;5.40;1.40;;;11.50;99.90;;;;;;6273770;22;20012;-88
2022/09/25 08:44:38;;;;;;;7.57;1.88;;;11.60;99.90;;;;;;6274210;22;20008;-93
2022/09/25 08:50:19;;;;;;;5.85;1.65;;;11.70;99.90;;;;;;6275798;22;20019;-93
2022/09/25 08:52:49;;;;;;;6.40;1.92;;;11.80;99.90;;;;;;6275497;22;20384;-93
2022/09/25 08:58:41;;;;;;;28.98;12.32;;;12.00;99.90;;;;;;6275073;22;20437;-94
2022/09/25 09:01:15;;;;;;;14.23;1.83;;;12.20;99.90;;;;;;6275363;22;20016;-85
2022/09/25 09:03:54;;;;;;;6.35;1.13;;;12.40;99.90;;;;;;6269402;22;20531;-86
2022/09/25 09:06:21;;;;;;;19.02;6.72;;;12.80;99.90;;;;;;6273729;22;20106;-86
2022/09/25 09:09:19;;;;;;;17.38;7.65;;;13.10;99.90;;;;;;6272480;22;20080;-85
2022/09/25 09:12:13;;;;;;;5.88;1.88;;;13.50;99.90;;;;;;6268593;22;20011;-85
2022/09/25 09:14:51;;;;;;;12.02;2.22;;;13.90;99.90;;;;;;6269953;22;20012;-86
2022/09/25 09:17:22;;;;;;;8.05;1.00;;;13.90;99.90;;;;;;6272643;22;20070;-86
2022/09/25 09:19:58;;;;;;;5.43;1.00;;;13.70;99.90;;;;;;6272983;22;20023;-85
2022/09/25 09:22:36;;;;;;;6.20;1.10;;;13.50;99.90;;;;;;6271470;22;20337;-85
2022/09/25 09:25:22;;;;;;;4.25;0.75;;;13.20;99.90;;;;;;6273405;22;20040;-85
2022/09/25 09:27:57;;;;;;;4.93;0.82;;;12.90;99.90;;;;;;6271480;22;20008;-85
2022/09/25 09:30:41;;;;;;;5.40;0.82;;;12.80;99.90;;;;;;6272155;22;20449;-86
2022/09/25 09:33:16;;;;;;;;;;;12.60;99.90;;;;;;6273799;22;20032;-86
2022/09/25 09:36:06;;;;;;;2.95;1.10;;;12.50;99.90;;;;;;6273038;22;19915;-85
2022/09/25 09:38:43;;;;;;;5.45;0.77;;;12.50;99.90;;;;;;6271242;22;20055;-86
2022/09/25 09:41:20;;;;;;;5.93;0.90;;;12.50;99.90;;;;;;6272884;22;20334;-85
2022/09/25 09:43:55;;;;;;;4.60;0.63;;;12.40;99.90;;;;;;6273117;22;20016;-89
2022/09/25 09:46:36;;;;;;;5.35;0.80;;;12.50;99.90;;;;;;6270556;22;20336;-87
2022/09/25 09:49:28;;;;;;;4.68;1.50;;;12.40;99.90;;;;;;6270519;22;20015;-89
2022/09/25 09:52:22;;;;;;;6.28;1.23;;;12.40;99.90;;;;;;6270149;22;20008;-85
2022/09/25 09:54:52;;;;;;;3.45;0.85;;;12.50;99.90;;;;;;6270619;22;20090;-85
2022/09/25 09:57:24;;;;;;;4.22;1.10;;;12.60;99.90;;;;;;6271112;22;20332;-85
2022/09/25 09:59:57;;;;;;;3.67;1.15;;;12.60;99.90;;;;;;6243879;22;20015;-87
2022/09/25 10:02:49;;;;;;;9.73;5.20;;;12.60;99.90;;;;;;6269466;22;20520;-85
2022/09/25 10:05:25;;;;;;;5.38;1.70;;;12.60;99.90;;;;;;6254433;22;20085;-85
2022/09/25 10:07:51;;;;;;;8.77;2.53;;;12.60;99.90;;;;;;6270856;22;20018;-85
2022/09/25 10:10:18;;;;;;;4.18;1.38;;;12.60;99.90;;;;;;6272249;22;20520;-86
2022/09/25 10:12:52;;;;;;;5.35;0.95;;;12.70;99.90;;;;;;6270560;22;20627;-86
2022/09/25 10:15:33;;;;;;;4.63;1.63;;;12.70;99.90;;;;;;6271949;22;20337;-86
2022/09/25 10:18:01;;;;;;;4.07;1.35;;;12.80;99.90;;;;;;6272432;22;20019;-89
2022/09/25 10:21:09;;;;;;;4.00;1.05;;;12.80;99.90;;;;;;6270549;22;20031;-88
2022/09/25 10:23:39;;;;;;;3.53;0.88;;;12.90;99.90;;;;;;6270156;22;20023;-87
2022/09/25 10:26:23;;;;;;;7.07;1.00;;;13.20;99.90;;;;;;6272729;22;20037;-88
2022/09/25 10:28:49;;;;;;;3.97;0.83;;;13.60;99.90;;;;;;6270271;22;20019;-87
2022/09/25 10:31:16;;;;;;;3.28;0.90;;;13.30;99.90;;;;;;6244899;22;20098;-88
2022/09/25 10:33:42;;;;;;;5.93;1.00;;;13.70;99.90;;;;;;6269796;22;20333;-89
2022/09/25 10:36:08;;;;;;;4.53;0.90;;;13.50;99.90;;;;;;6270747;22;20019;-88
2022/09/25 10:38:43;;;;;;;6.50;1.50;;;13.60;99.90;;;;;;6271225;22;20011;-93
2022/09/25 10:41:19;;;;;;;4.13;0.70;;;13.70;99.90;;;;;;6274158;22;20012;-85
2022/09/25 10:43:58;;;;;;;5.22;1.05;;;13.80;99.90;;;;;;6271810;22;20019;-85
2022/09/25 10:52:11;;;;;;;3.70;0.82;;;14.00;99.90;;;;;;6272019;22;20047;-88
2022/09/25 10:54:37;;;;;;;4.05;0.88;;;14.00;99.90;;;;;;6272668;22;20072;-89
2022/09/25 10:57:21;;;;;;;7.05;0.90;;;14.00;99.90;;;;;;6269090;22;20446;-87
2022/09/25 10:59:48;;;;;;;;;;;14.00;99.90;;;;;;6270811;22;20016;-86
2022/09/25 11:02:31;;;;;;;4.53;0.95;;;14.10;99.90;;;;;;6270368;22;20385;-89
2022/09/25 11:04:57;;;;;;;3.92;0.70;;;14.20;99.90;;;;;;6272754;22;20018;-87
2022/09/25 11:07:26;;;;;;;3.17;0.82;;;14.20;99.90;;;;;;6272317;22;20007;-90
2022/09/25 11:09:52;;;;;;;5.63;1.00;;;14.30;99.90;;;;;;6269899;22;20432;-84
2022/09/25 11:12:30;;;;;;;2.17;0.68;;;14.40;99.90;;;;;;6270183;22;20020;-84
2022/09/25 11:15:08;;;;;;;5.20;1.00;;;14.70;99.90;;;;;;6272065;22;20452;-84
2022/09/25 11:17:40;;;;;;;5.50;0.98;;;14.40;99.90;;;;;;6269826;22;20026;-80
2022/09/25 11:20:15;;;;;;;3.63;0.95;;;14.40;99.90;;;;;;6272331;22;20420;-83
2022/09/25 11:22:47;;;;;;;6.30;0.77;;;14.50;99.90;;;;;;6270877;22;20368;-83
2022/09/25 11:25:19;;;;;;;4.97;1.20;;;14.50;99.90;;;;;;6272369;22;20023;-83
2022/09/25 11:27:52;;;;;;;3.25;1.25;;;14.50;99.90;;;;;;6272361;22;20042;-84
2022/09/25 11:30:20;;;;;;;4.90;1.13;;;14.60;99.90;;;;;;6270419;22;20012;-82
2022/09/25 11:32:45;;;;;;;3.20;0.73;;;14.70;99.90;;;;;;6270949;22;20016;-84
2022/09/25 11:35:23;;;;;;;4.00;0.75;;;14.90;99.90;;;;;;6271553;22;20023;-83
2022/09/25 11:37:51;;;;;;;1.80;0.60;;;15.10;99.90;;;;;;6272332;22;20043;-85
2022/09/25 11:43:35;;;;;;;3.33;0.70;;;15.70;99.90;;;;;;6270346;22;20027;-84
2022/09/25 11:46:39;;;;;;;9.38;1.17;;;16.30;99.90;;;;;;6272016;22;20007;-85
2022/09/25 11:49:14;;;;;;;2.45;0.50;;;16.70;99.90;;;;;;6177521;23;20021;-85
2022/09/25 11:52:02;;;;;;;4.78;0.52;;;17.10;99.90;;;;;;6153398;23;20517;-85
2022/09/25 11:54:52;;;;;;;5.03;0.80;;;17.30;99.90;;;;;;6174652;23;20017;-85
2022/09/25 11:57:21;;;;;;;5.10;0.60;;;17.40;99.90;;;;;;6127838;23;20051;-87
2022/09/25 12:00:13;;;;;;;2.78;0.50;;;17.20;99.90;;;;;;6153347;23;20103;-86
2022/09/25 12:03:17;;;;;;;1.98;0.55;;;17.10;99.90;;;;;;6153191;23;20053;-86
2022/09/25 12:06:14;;;;;;;2.67;0.40;;;16.70;99.90;;;;;;6128668;23;20048;-87
2022/09/25 12:09:17;;;;;;;3.20;0.68;;;16.40;99.90;;;;;;6152049;23;20119;-87
2022/09/25 12:11:48;;;;;;;3.08;0.70;;;16.10;99.90;;;;;;6128129;23;20055;-86
2022/09/25 12:14:40;;;;;;;4.45;0.50;;;16.10;99.90;;;;;;6127820;23;20071;-87
2022/09/25 12:17:24;;;;;;;2.35;0.30;;;16.10;99.90;;;;;;6178034;23;20020;-87
2022/09/25 12:20:07;;;;;;;4.18;0.32;;;16.30;99.90;;;;;;6208011;22;20015;-87
2022/09/25 12:23:14;;;;;;;2.05;0.32;;;16.50;99.90;;;;;;6272815;22;20015;-87
2022/09/25 12:26:02;;;;;;;1.42;0.35;;;16.70;99.90;;;;;;6245192;22;20445;-88
2022/09/25 12:28:51;;;;;;;1.17;0.40;;;16.90;99.90;;;;;;6271694;22;20023;-89
2022/09/25 12:31:29;;;;;;;2.25;0.60;;;17.20;99.90;;;;;;6270898;22;20015;-89
2022/09/25 12:34:13;;;;;;;4.30;0.68;;;17.40;99.90;;;;;;6274066;22;20053;-88
2022/09/25 12:36:53;;;;;;;2.83;0.30;;;17.50;99.90;;;;;;6271595;22;20050;-88
2022/09/25 12:39:36;;;;;;;1.42;0.30;;;17.70;99.90;;;;;;6272185;22;20397;-88
2022/09/25 12:42:24;;;;;;;4.43;0.52;;;17.90;99.90;;;;;;6271036;22;20027;-88
2022/09/25 12:45:02;;;;;;;1.33;0.28;;;18.00;99.90;;;;;;6271711;22;20012;-87
2022/09/25 12:47:40;;;;;;;2.08;0.40;;;18.00;99.90;;;;;;6271431;22;20016;-88
2022/09/25 12:50:12;;;;;;;1.25;0.30;;;18.10;99.90;;;;;;6272189;22;20018;-88
2022/09/25 12:53:01;;;;;;;1.77;0.30;;;17.90;99.90;;;;;;6246500;22;20082;-88
2022/09/25 12:55:54;;;;;;;2.40;0.50;;;17.60;99.90;;;;;;6274219;22;20012;-89
2022/09/25 12:58:43;;;;;;;2.20;0.38;;;17.30;99.90;;;;;;6247487;22;20018;-89
2022/09/25 13:01:23;;;;;;;2.50;0.60;;;17.10;99.90;;;;;;6272786;22;20340;-88
2022/09/25 13:04:18;;;;;;;3.20;0.40;;;16.90;99.90;;;;;;6272314;22;20026;-92
2022/09/25 13:06:59;;;;;;;2.33;0.50;;;16.70;99.90;;;;;;6272056;22;20012;-89
2022/09/25 13:09:53;;;;;;;2.00;0.50;;;16.60;99.90;;;;;;6273773;22;20008;-89
2022/09/25 13:12:35;;;;;;;5.38;0.52;;;16.50;99.90;;;;;;6274515;22;20011;-88
2022/09/25 13:15:07;;;;;;;2.85;0.60;;;16.50;99.90;;;;;;6274455;22;20070;-89
2022/09/25 13:17:34;;;;;;;3.60;0.60;;;16.50;99.90;;;;;;6273502;22;20050;-89
2022/09/25 13:20:30;;;;;;;2.88;0.40;;;16.80;99.90;;;;;;6274564;22;20012;-89
2022/09/25 13:23:00;;;;;;;3.80;0.50;;;16.40;99.90;;;;;;6220196;22;20039;-88
2022/09/25 13:25:26;;;;;;;2.67;0.50;;;16.30;99.90;;;;;;6273272;22;20314;-88
2022/09/25 13:27:53;;;;;;;6.55;0.80;;;16.30;99.90;;;;;;6274411;22;20007;-89
2022/09/25 13:30:25;;;;;;;3.85;0.70;;;16.30;99.90;;;;;;6272685;22;20655;-86
2022/09/25 13:33:02;;;;;;;5.32;0.68;;;16.50;99.90;;;;;;6273937;22;20062;-86
2022/09/25 13:35:31;;;;;;;7.00;0.70;;;16.70;99.90;;;;;;6275103;22;20095;-91
2022/09/25 13:38:11;;;;;;;2.22;0.45;;;16.70;99.90;;;;;;6275858;22;20012;-94
2022/09/25 13:40:42;;;;;;;3.55;0.50;;;16.80;99.90;;;;;;6251466;22;20007;-95
2022/09/25 13:43:28;;;;;;;2.30;0.50;;;17.00;99.90;;;;;;6252053;22;20026;-94
2022/09/25 13:46:20;;;;;;;3.55;0.55;;;17.30;99.90;;;;;;6251506;22;20090;-94